Terminal Aerodrome Forecast
Issued by NWS

Home | Current Version | Previous Version | Text Only | Print | Product List | Glossary On
Versions: 1 2 3 4 5 6 7 8 9 10 11 12 13 14 15 16 17
477
FTUS46 KEKA 240559
TAFCEC
TAF
KCEC 240559Z 2406/2506 04004KT 5SM HZ SCT002 BKN070 BKN250
      TEMPO 2406/2409 BKN002
     FM240900 04004KT P6SM SCT002 BKN060 BKN250
     FM241200 04004KT P6SM SCT002
     FM241900 34006KT P6SM SKC
     FM250300 03003KT 6SM BR FEW250=

USA.gov is the U.S. government's official web portal to all federal, state and local government web resources and services.